Latest Weather Observations for Proserpine

IDQ60801

Issued at 10:35 pm EST Wednesday 23 April 2014 (issued every 30 minutes, with the page automatically refreshed every 10 minutes)

About weather observations | Map of weather stations | Latest weather observations for QLD | Other Formats
Station Details ID: 033247 Name: PROSERPINE AIRPORT Lat: -20.49 Lon: 148.56 Height: 19.7 m
Data from the previous 72 hours. | See also: Recent months at Proserpine
Date/Time
EST
Temp
°C
App
Temp
°C
Dew
Point
Rel
Hum
%
Delta-T
°C
Wind Press
QNH
hPa
Press
MSL
hPa
Rain
since 9 am
mm
Dir
 
Spd
km/h
Gust
km/h
Spd
kts
Gust
kts
23/10:30pm 21.8 23.9 21.0 95 0.5 SSE 11 19 6 10 1015.2 - 4.8
23/10:00pm 21.9 24.3 20.9 94 0.7 S 9 13 5 7 1015.7 - 4.6
23/09:37pm 21.9 24.0 20.9 94 0.7 S 11 17 6 9 1015.7 - 4.6
23/09:30pm 22.0 23.8 21.2 95 0.5 S 13 19 7 10 1015.7 - 4.6
23/09:00pm 21.9 23.7 21.1 95 0.5 S 13 19 7 10 1015.8 1015.7 4.6
23/08:49pm 22.0 23.8 21.2 95 0.5 S 13 19 7 10 1015.6 - 4.6
23/08:30pm 22.0 23.9 21.3 96 0.5 S 13 17 7 9 1015.5 - 4.6
23/08:00pm 21.9 23.7 21.2 96 0.5 S 13 17 7 9 1015.1 - 4.2
23/07:30pm 22.0 23.5 21.3 96 0.5 S 15 20 8 11 1015.0 - 3.0
23/07:14pm 22.1 23.2 21.3 95 0.5 SSE 17 24 9 13 1014.6 - 2.2
23/07:00pm 22.1 23.2 21.3 95 0.5 S 17 26 9 14 1014.3 - 1.4
23/06:30pm 22.3 24.6 21.3 94 0.7 S 11 15 6 8 1014.2 - 0.6
23/06:00pm 22.6 24.1 21.2 92 0.9 SSE 15 20 8 11 1013.4 1013.3 0.2
23/05:30pm 23.5 24.9 21.0 86 1.6 SSE 15 20 8 11 1013.0 - 0.0
23/05:10pm 23.8 25.9 20.9 84 1.9 SSE 11 15 6 8 1012.9 - 0.0
23/05:00pm 23.9 26.0 21.0 84 1.9 SE 11 15 6 8 1012.8 - 0.0
23/04:30pm 24.3 25.7 21.0 82 2.2 SSE 15 20 8 11 1012.3 - 0.0
23/04:00pm 25.0 25.9 20.9 78 2.7 SSE 17 22 9 12 1012.7 - 0.0
23/03:30pm 25.3 25.3 21.0 77 2.8 SE 22 28 12 15 1012.6 - 0.0
23/03:00pm 26.2 26.4 21.4 75 3.2 SSE 22 33 12 18 1012.8 1012.7 0.0
23/02:30pm 26.2 26.9 21.6 76 3.1 SSE 20 30 11 16 1013.1 - 0.0
23/02:00pm 26.6 27.7 22.4 78 2.8 SSE 20 28 11 15 1013.1 - 0.0
23/01:30pm 25.7 26.4 21.6 78 2.7 SSE 20 26 11 14 1013.0 - 0.0
23/01:00pm 25.8 26.6 21.7 78 2.7 SSE 20 30 11 16 1013.4 - 0.0
23/12:30pm 25.3 26.1 21.4 79 2.6 S 19 28 10 15 1014.1 - 0.0
23/12:08pm 25.4 26.2 21.3 78 2.7 SSE 19 26 10 14 1014.5 - 0.0
23/12:00pm 25.6 26.7 21.9 80 2.5 S 19 24 10 13 1014.7 1014.7 0.0
23/11:31am 25.8 27.1 21.7 78 2.7 SSE 17 24 9 13 1015.0 - 0.0
23/11:30am 25.9 26.8 21.6 77 2.9 SSE 19 24 10 13 1014.9 - 0.0
23/11:00am 25.9 26.9 21.8 78 2.7 SSE 19 28 10 15 1015.4 - 0.0
23/10:30am 25.6 27.0 21.9 80 2.5 SE 17 28 9 15 1015.6 - 0.0
23/10:00am 25.6 26.6 21.7 79 2.6 SSE 19 26 10 14 1015.3 - 0.0
23/09:41am 25.3 25.9 21.4 79 2.6 S 20 26 11 14 1015.5 - 0.0
23/09:30am 25.2 26.2 21.1 78 2.7 SSE 17 26 9 14 1015.7 - 0.0
23/09:17am 24.9 26.1 21.4 81 2.3 SSE 17 22 9 12 1015.7 - 0.0
23/09:00am 24.6 25.2 21.1 81 2.3 SSE 19 26 10 14 1015.5 1015.4 0.8
23/08:30am 24.2 25.7 21.3 84 1.9 S 15 19 8 10 1015.2 - 0.8
23/08:00am 23.8 25.6 21.1 85 1.8 SSE 13 19 7 10 1015.1 - 0.8
23/07:30am 23.1 24.6 20.6 86 1.6 SSE 13 17 7 9 1014.9 - 0.8
23/07:00am 22.2 24.4 20.5 90 1.1 S 9 13 5 7 1015.1 - 0.8
23/06:30am 22.0 23.8 20.3 90 1.1 SSE 11 15 6 8 1014.6 - 0.8
23/06:00am 22.0 22.9 20.1 89 1.2 S 15 20 8 11 1014.7 1014.5 0.8
23/05:30am 22.1 23.1 20.2 89 1.2 S 15 20 8 11 1014.6 - 0.6
23/05:00am 22.0 23.4 20.3 90 1.1 S 13 17 7 9 1014.6 - 0.6
23/04:30am 22.1 23.4 20.2 89 1.2 SSE 13 17 7 9 1014.5 - 0.6
23/04:00am 22.1 23.6 20.6 91 1.0 S 13 15 7 8 1014.8 - 0.6
23/03:54am 21.9 23.8 20.5 92 0.9 S 11 15 6 8 1014.8 - 0.6
23/03:42am 21.7 23.6 20.5 93 0.8 S 11 13 6 7 1014.7 - 0.6
23/03:30am 21.6 23.4 20.4 93 0.8 S 11 15 6 8 1014.6 - 0.6
23/03:00am 21.7 23.1 20.3 92 0.9 S 13 15 7 8 1014.8 1014.7 0.6
23/02:30am 21.3 23.5 20.3 94 0.6 S 9 13 5 7 1014.8 - 0.6
23/02:00am 21.5 24.1 20.5 94 0.6 S 7 9 4 5 1015.1 - 0.6
23/01:30am 21.5 24.0 20.3 93 0.8 SSW 7 9 4 5 1015.4 - 0.4
23/01:00am 21.9 24.0 20.2 90 1.1 S 9 13 5 7 1015.6 - 0.2
23/12:30am 21.8 24.2 20.1 90 1.1 SSW 7 9 4 5 1016.0 - 0.2
23/12:00am 22.2 24.3 20.1 88 1.3 S 9 11 5 6 1016.3 1016.3 0.2
 
Date/Time
EST
Temp
°C
App
Temp
°C
Dew
Point
Rel
Hum
%
Delta-T
°C
Wind Press
QNH
hPa
Press
MSL
hPa
Rain
since 9 am
mm
Dir
 
Spd
km/h
Gust
km/h
Spd
kts
Gust
kts
22/11:30pm 22.0 23.7 20.1 89 1.2 S 11 15 6 8 1016.5 - 0.2
22/11:00pm 22.0 23.3 20.1 89 1.2 SSE 13 17 7 9 1016.5 - 0.2
22/10:30pm 22.2 24.3 20.1 88 1.4 S 9 13 5 7 1016.7 - 0.2
22/10:00pm 22.2 22.3 19.9 87 1.5 S 19 26 10 14 1016.7 - 0.2
22/09:30pm 22.6 22.8 19.4 82 2.0 SSE 17 19 9 10 1016.8 - 0.0
22/09:00pm 22.5 23.8 19.3 82 2.0 S 11 11 6 6 1017.1 1016.9 0.0
22/08:30pm 22.2 23.7 19.7 86 1.6 SSW 11 13 6 7 1016.9 - 0.0
22/08:00pm 22.5 25.4 19.9 85 1.7 S 4 7 2 4 1016.8 - 0.0
22/07:30pm 22.5 24.5 19.9 85 1.7 SSW 9 11 5 6 1016.8 - 0.0
22/07:01pm 22.4 24.8 20.1 87 1.5 SSW 7 9 4 5 1016.5 - 0.0
22/07:00pm 22.5 25.0 20.2 87 1.5 SSW 7 9 4 5 1016.5 - 0.0
22/06:42pm 22.5 25.0 20.2 87 1.5 SW 7 7 4 4 1016.4 - 0.0
22/06:30pm 22.5 24.9 20.0 86 1.6 SSW 7 9 4 5 1016.3 - 0.0
22/06:00pm 22.9 26.2 19.9 83 1.9 ESE 2 9 1 5 1016.0 1015.9 0.0
22/05:30pm 23.3 25.1 19.5 79 2.4 ESE 9 13 5 7 1015.8 - 0.0
22/05:00pm 24.1 25.9 19.6 76 2.9 ESE 9 13 5 7 1015.6 - 0.0
22/04:30pm 24.8 25.3 19.2 71 3.6 ESE 15 19 8 10 1015.5 - 0.0
22/04:00pm 25.3 25.2 18.7 67 4.2 ESE 17 26 9 14 1015.4 - 0.0
22/03:30pm 25.7 25.2 18.6 65 4.5 ESE 19 26 10 14 1015.5 - 0.0
22/03:00pm 26.1 26.0 20.0 69 4.0 ESE 20 28 11 15 1015.5 1015.4 0.0
22/02:30pm 26.5 26.0 19.1 64 4.8 ESE 20 26 11 14 1015.4 - 0.0
22/02:00pm 27.1 25.9 18.4 59 5.5 ESE 22 30 12 16 1015.5 - 0.0
22/01:30pm 26.9 26.2 18.2 59 5.5 SE 19 24 10 13 1015.8 - 0.0
22/01:00pm 27.4 26.7 18.7 59 5.6 ESE 20 32 11 17 1016.1 - 0.0
22/12:30pm 26.9 25.7 17.4 56 6.0 ESE 20 30 11 16 1016.2 - 0.0
22/12:00pm 27.0 25.9 18.6 60 5.4 ESE 22 33 12 18 1016.8 1016.7 0.0
22/11:30am 26.7 25.6 17.7 57 5.7 ESE 20 32 11 17 1017.2 - 0.0
22/11:00am 27.6 26.5 17.7 54 6.3 ESE 20 28 11 15 1017.7 - 0.0
22/10:30am 26.7 25.6 17.7 57 5.7 ESE 20 30 11 16 1017.9 - 0.0
22/10:00am 26.7 25.7 18.0 59 5.5 ESE 20 28 11 15 1018.4 - 0.0
22/09:30am 25.3 26.0 18.0 64 4.6 SSE 11 22 6 12 1018.5 - 0.0
22/09:00am 25.4 27.5 19.3 69 3.9 S 7 13 4 7 1018.5 1018.4 0.0
22/08:30am 23.6 24.8 18.3 72 3.3 S 9 13 5 7 1018.3 - 0.0
22/08:00am 21.9 23.2 19.3 85 1.7 SSW 11 13 6 7 1018.2 - 0.0
22/07:30am 20.8 21.9 18.9 89 1.2 SSW 11 15 6 8 1018.0 - 0.0
22/07:00am 20.3 21.4 18.8 91 0.9 SSW 11 15 6 8 1017.6 - 0.0
22/06:30am 19.4 20.5 18.1 92 0.8 SSW 9 13 5 7 1017.3 - 0.0
22/06:00am 19.6 21.2 18.3 92 0.8 SW 7 9 4 5 1017.1 1017.0 0.0
22/05:30am 19.5 20.7 18.3 93 0.7 SSW 9 13 5 7 1016.8 - 0.0
22/05:00am 19.2 20.7 18.0 93 0.7 SW 7 11 4 6 1016.6 - 0.0
22/04:30am 18.9 20.2 17.6 92 0.8 SW 7 9 4 5 1016.5 - 0.0
22/04:00am 19.1 20.5 17.9 93 0.7 SSW 7 11 4 6 1016.4 - 0.0
22/03:30am 18.8 20.1 17.5 92 0.8 SSW 7 9 4 5 1016.6 - 0.0
22/03:00am 19.0 20.2 17.3 90 1.0 S 7 9 4 5 1016.6 1016.5 0.0
22/02:30am 19.1 20.2 17.2 89 1.2 SSW 7 9 4 5 1016.7 - 0.0
22/02:00am 19.1 20.2 17.2 89 1.2 SSW 7 11 4 6 1016.9 - 0.0
22/01:30am 19.4 21.1 17.2 87 1.3 SSW 4 9 2 5 1017.0 - 0.0
22/01:00am 19.6 21.1 17.6 88 1.2 SW 6 7 3 4 1017.3 - 0.0
22/12:30am 19.1 20.6 16.7 86 1.4 SSW 4 7 2 4 1017.6 - 0.0
22/12:00am 19.4 20.9 16.6 84 1.7 SW 4 7 2 4 1017.9 1017.9 0.0
 
Date/Time
EST
Temp
°C
App
Temp
°C
Dew
Point
Rel
Hum
%
Delta-T
°C
Wind Press
QNH
hPa
Press
MSL
hPa
Rain
since 9 am
mm
Dir
 
Spd
km/h
Gust
km/h
Spd
kts
Gust
kts
21/11:30pm 19.4 21.9 17.2 87 1.3 CALM 0 0 0 0 1018.2 - 0.0
21/11:00pm 19.2 21.2 17.0 87 1.3 WSW 2 7 1 4 1018.1 - 0.0
21/10:30pm 19.0 20.1 17.0 88 1.2 SSW 7 9 4 5 1018.2 - 0.0
21/10:24pm 18.9 19.8 16.7 87 1.3 SSW 7 9 4 5 1018.3 - 0.0
21/10:06pm 18.8 19.8 16.8 88 1.2 SSW 7 11 4 6 1018.3 - 0.0
21/10:00pm 19.0 20.1 17.0 88 1.2 SSW 7 9 4 5 1018.3 - 0.0
21/09:30pm 19.3 20.0 17.1 87 1.3 SW 9 11 5 6 1018.4 - 0.0
21/09:00pm 20.1 22.1 16.9 82 1.9 S 2 9 1 5 1018.3 1018.2 0.0
21/08:30pm 21.6 21.7 16.6 73 3.0 ESE 11 13 6 7 1018.5 - 0.0
21/08:00pm 21.5 22.1 16.9 75 2.8 ESE 9 11 5 6 1018.2 - 0.0
21/07:30pm 21.8 23.3 18.0 79 2.4 SE 7 9 4 5 1017.9 - 0.0
21/07:00pm 21.8 24.4 17.4 76 2.7 CALM 0 0 0 0 1017.7 - 0.0
21/06:30pm 22.3 23.7 17.4 74 3.0 SE 6 7 3 4 1017.5 - 0.0
21/06:00pm 23.0 23.3 17.0 69 3.7 ESE 11 15 6 8 1017.2 1017.1 0.0
21/05:30pm 24.3 24.1 16.8 63 4.6 ESE 13 19 7 10 1017.1 - 0.0
21/05:00pm 25.3 24.5 17.0 60 5.1 ESE 17 24 9 13 1016.6 - 0.0
21/04:30pm 26.0 24.4 16.5 55 5.9 ESE 20 32 11 17 1016.1 - 0.0
21/04:00pm 26.6 25.0 17.4 57 5.8 ESE 22 32 12 17 1015.9 - 0.0
21/03:30pm 26.6 25.0 17.4 57 5.8 ESE 22 30 12 16 1015.8 - 0.0
21/03:00pm 27.0 25.3 17.2 55 6.1 ESE 22 32 12 17 1015.8 1015.6 0.0
21/02:30pm 27.4 25.6 17.0 53 6.5 ESE 22 32 12 17 1015.8 - 0.0
21/02:00pm 27.7 26.6 17.8 54 6.3 ESE 20 35 11 19 1016.0 - 0.0
21/01:30pm 27.3 25.0 16.6 52 6.6 E 24 33 13 18 1016.3 - 0.0
21/01:00pm 26.7 24.4 16.6 54 6.3 SE 24 39 13 21 1016.7 - 0.0
21/12:30pm 26.4 24.7 17.2 57 5.7 ESE 22 35 12 19 1016.8 - 0.0
21/12:00pm 26.9 24.5 17.4 56 6.0 SE 26 33 14 18 1017.0 1016.9 0.0
21/11:30am 27.0 25.9 17.2 55 6.1 E 19 35 10 19 1017.5 - 0.0
21/11:00am 27.2 26.2 17.9 56 5.9 SE 20 30 11 16 1018.0 - 0.0
21/10:30am 26.6 24.2 16.5 54 6.2 ESE 24 33 13 18 1018.3 - 0.0
21/10:00am 26.8 25.3 17.6 57 5.8 SE 22 32 12 17 1018.4 - 0.0
21/09:30am 25.5 26.3 18.2 64 4.6 SE 11 17 6 9 1018.4 - 0.0
21/09:00am 23.8 23.9 17.5 68 3.9 SSE 13 17 7 9 1018.4 1018.4 0.0
21/08:30am 22.5 23.7 17.4 73 3.2 S 7 11 4 6 1018.2 - 0.0
21/08:00am 20.6 21.7 17.0 80 2.2 S 7 9 4 5 1018.1 - 0.0
21/07:30am 18.5 20.9 17.0 91 0.9 CALM 0 0 0 0 1018.0 - 0.0
21/07:00am 16.4 18.4 16.1 98 0.2 CALM 0 0 0 0 1017.8 - 0.0
21/06:30am 15.4 17.1 15.1 98 0.2 CALM 0 0 0 0 1017.4 - 0.0
21/06:00am 15.0 16.4 14.4 96 0.3 CALM 0 0 0 0 1017.0 1016.8 0.0
21/05:30am 15.4 16.8 14.4 94 0.6 CALM 0 0 0 0 1016.7 - 0.0
21/05:00am 16.2 16.7 15.1 93 0.6 S 6 9 3 5 1016.6 - 0.0
21/04:30am 16.4 17.0 15.4 94 0.6 S 6 7 3 4 1016.4 - 0.0
21/04:00am 16.3 16.7 15.3 94 0.6 SSW 7 9 4 5 1016.2 - 0.0
21/03:30am 16.4 16.8 15.3 93 0.6 SW 7 7 4 4 1016.1 - 0.0
21/03:00am 16.6 17.1 15.5 93 0.6 SW 7 9 4 5 1016.2 1016.1 0.0
21/02:30am 16.9 17.6 15.6 92 0.8 SSW 6 9 3 5 1016.2 - 0.0
21/02:00am 17.1 17.9 15.8 92 0.8 SW 6 7 3 4 1016.4 - 0.0
21/01:30am 17.4 17.3 15.9 91 0.9 SSW 11 15 6 8 1016.6 - 0.0
21/01:00am 17.6 17.2 16.1 91 0.9 SSW 13 15 7 8 1016.9 - 0.0
21/12:30am 17.7 18.1 16.2 91 0.9 SSW 9 13 5 7 1017.1 - 0.0
21/12:00am 18.0 17.6 16.3 90 1.0 SSW 13 15 7 8 1017.3 1017.2 0.0
 
Date/Time
EST
Temp
°C
App
Temp
°C
Dew
Point
Rel
Hum
%
Delta-T
°C
Wind Press
QNH
hPa
Press
MSL
hPa
Rain
since 9 am
mm
Dir
 
Spd
km/h
Gust
km/h
Spd
kts
Gust
kts
20/11:30pm 18.4 18.7 16.9 91 0.9 SSW 11 13 6 7 1017.7 - 0.0
20/11:00pm 18.4 19.0 16.9 91 0.9 SSW 9 13 5 7 1017.9 - 0.0

Other Formats:

Comma delimited format used in spreadsheet applications
http://www.bom.gov.au/fwo/IDQ60801/IDQ60801.94365.axf

JavaScript Object Notation format (JSON) in row-major order
http://www.bom.gov.au/fwo/IDQ60801/IDQ60801.94365.json